Estación Meteorológica Peña el Pijo (Robertgarden) [ 02/03/23 04:28:30 CET ]

Fecha Hora Presion(HPa) Temp (°C) Humedad % Rocio (°C) Viento ( m/s) Direccion Lluvia 1Hora(mm) Lluvia 24H(mm) LLuvia Total(mm)
2012-Sep-09 01:01:18 1015.100 14.1 74 9.5         178.19
2012-Sep-09 02:01:13 1014.800 12.7 77 8.8         178.19
2012-Sep-09 03:03:17 1014.300 11.7 79 8.2         178.19
2012-Sep-09 04:01:14 1013.900 11.6 80 8.3         178.19
2012-Sep-09 05:01:17 1013.700 12.7 76 8.6         178.19
2012-Sep-09 06:01:13 1013.400 13.1 74 8.6         178.19
2012-Sep-09 07:01:12 1013.300 13.1 74 8.6         178.19
2012-Sep-09 08:01:18 1013.600 11.3 76 7.2         178.19
2012-Sep-09 09:01:12 1013.800 13.2 81 10.0         178.19
2012-Sep-09 10:01:13 1013.900 19.6 64 12.6         178.19
2012-Sep-09 11:01:16 1013.900 24.3 48 12.6         178.19
2012-Sep-09 12:01:16 1013.700 25.0 42 11.2         178.19
2012-Sep-09 13:01:14 1013.200 27.9 26 6.4         178.19
2012-Sep-09 14:01:12 1012.700 30.1 19 3.7         178.19
2012-Sep-09 15:01:18 1012.000 31.2 18 3.7         178.19
2012-Sep-09 16:01:21 1011.200 32.4 24 9.0         178.19
2012-Sep-09 17:01:14 1010.600 31.8 25 9.1         178.19
2012-Sep-09 18:01:13 1010.400 31.6 21 6.6         178.19
2012-Sep-09 19:01:13 1010.400 27.3 28 7.1 1.5 NNE     178.19
2012-Sep-09 20:01:17 1011.100 24.3 34 7.3         178.19
2012-Sep-09 21:01:17 1011.700 22.1 39 7.5         178.19
2012-Sep-09 22:01:16 1012.400 20.1 43 7.1         178.19
2012-Sep-09 23:01:19 1012.800 16.9 53 7.2         178.19

Temperatura Máxima:32°    Temperatura Mínima:11°
Presión Máxima:1015.100 Hpa    Presión Mínima:1010.400 Hpa


Volver